sensor_id;sensor_type;location;lat;lon;timestamp;temperature;humidity
10692;DHT22;5396;50.950;6.988;2023-05-01T00:02:22;12.10;99.90
10692;DHT22;5396;50.950;6.988;2023-05-01T00:04:47;12.00;99.90
10692;DHT22;5396;50.950;6.988;2023-05-01T00:07:13;12.00;99.90
10692;DHT22;5396;50.950;6.988;2023-05-01T00:09:39;12.00;99.90
10692;DHT22;5396;50.950;6.988;2023-05-01T00:12:05;12.00;99.90
10692;DHT22;5396;50.950;6.988;2023-05-01T00:14:30;12.00;99.90
10692;DHT22;5396;50.950;6.988;2023-05-01T00:16:56;12.10;99.90
10692;DHT22;5396;50.950;6.988;2023-05-01T00:19:21;12.10;99.90
10692;DHT22;5396;50.950;6.988;2023-05-01T00:21:47;12.20;99.90
10692;DHT22;5396;50.950;6.988;2023-05-01T00:24:14;12.20;99.90
10692;DHT22;5396;50.950;6.988;2023-05-01T00:26:41;12.30;99.90
10692;DHT22;5396;50.950;6.988;2023-05-01T00:29:07;12.30;99.90
10692;DHT22;5396;50.950;6.988;2023-05-01T00:31:33;12.30;99.90
10692;DHT22;5396;50.950;6.988;2023-05-01T00:33:58;12.30;99.90
10692;DHT22;5396;50.950;6.988;2023-05-01T00:36:24;12.30;99.90
10692;DHT22;5396;50.950;6.988;2023-05-01T00:38:50;12.40;99.90
10692;DHT22;5396;50.950;6.988;2023-05-01T00:41:15;12.40;99.90
10692;DHT22;5396;50.950;6.988;2023-05-01T00:43:41;12.40;99.90
10692;DHT22;5396;50.950;6.988;2023-05-01T00:46:07;12.40;99.90
10692;DHT22;5396;50.950;6.988;2023-05-01T00:48:34;12.40;99.90
10692;DHT22;5396;50.950;6.988;2023-05-01T00:51:00;12.40;99.90
10692;DHT22;5396;50.950;6.988;2023-05-01T00:53:26;12.40;99.90
10692;DHT22;5396;50.950;6.988;2023-05-01T00:55:54;12.40;99.90
10692;DHT22;5396;50.950;6.988;2023-05-01T00:58:20;12.40;99.90
10692;DHT22;5396;50.950;6.988;2023-05-01T01:00:48;12.40;99.90
10692;DHT22;5396;50.950;6.988;2023-05-01T01:03:13;12.40;99.90
10692;DHT22;5396;50.950;6.988;2023-05-01T01:05:48;12.40;99.90
10692;DHT22;5396;50.950;6.988;2023-05-01T01:08:41;12.40;99.90
10692;DHT22;5396;50.950;6.988;2023-05-01T01:11:21;12.40;99.90
10692;DHT22;5396;50.950;6.988;2023-05-01T01:13:57;12.40;99.90
10692;DHT22;5396;50.950;6.988;2023-05-01T01:16:45;12.40;99.90
10692;DHT22;5396;50.950;6.988;2023-05-01T01:21:58;12.40;99.90
10692;DHT22;5396;50.950;6.988;2023-05-01T01:24:45;12.40;99.90
10692;DHT22;5396;50.950;6.988;2023-05-01T01:27:35;12.40;99.90
10692;DHT22;5396;50.950;6.988;2023-05-01T01:33:16;12.40;99.90
10692;DHT22;5396;50.950;6.988;2023-05-01T01:35:56;12.40;99.90
10692;DHT22;5396;50.950;6.988;2023-05-01T01:38:41;12.40;99.90
10692;DHT22;5396;50.950;6.988;2023-05-01T01:41:12;12.40;99.90
10692;DHT22;5396;50.950;6.988;2023-05-01T01:43:42;12.30;99.90
10692;DHT22;5396;50.950;6.988;2023-05-01T01:46:10;12.30;99.90
10692;DHT22;5396;50.950;6.988;2023-05-01T01:48:39;12.30;99.90
10692;DHT22;5396;50.950;6.988;2023-05-01T01:51:09;12.30;99.90
10692;DHT22;5396;50.950;6.988;2023-05-01T01:53:37;12.20;99.90
10692;DHT22;5396;50.950;6.988;2023-05-01T01:56:04;12.30;99.90
10692;DHT22;5396;50.950;6.988;2023-05-01T01:58:32;12.30;99.90
10692;DHT22;5396;50.950;6.988;2023-05-01T02:00:59;12.30;99.90
10692;DHT22;5396;50.950;6.988;2023-05-01T02:03:26;12.20;99.90
10692;DHT22;5396;50.950;6.988;2023-05-01T02:05:53;12.20;99.90
10692;DHT22;5396;50.950;6.988;2023-05-01T02:08:20;12.20;99.90
10692;DHT22;5396;50.950;6.988;2023-05-01T02:10:48;12.20;99.90
10692;DHT22;5396;50.950;6.988;2023-05-01T02:13:14;12.20;99.90
10692;DHT22;5396;50.950;6.988;2023-05-01T02:15:42;12.20;99.90
10692;DHT22;5396;50.950;6.988;2023-05-01T02:18:09;12.20;99.90
10692;DHT22;5396;50.950;6.988;2023-05-01T02:20:36;12.20;99.90
10692;DHT22;5396;50.950;6.988;2023-05-01T02:23:02;12.20;99.90
10692;DHT22;5396;50.950;6.988;2023-05-01T02:25:30;12.20;99.90
10692;DHT22;5396;50.950;6.988;2023-05-01T02:28:01;12.20;99.90
10692;DHT22;5396;50.950;6.988;2023-05-01T02:30:27;12.20;99.90
10692;DHT22;5396;50.950;6.988;2023-05-01T02:32:53;12.20;99.90
10692;DHT22;5396;50.950;6.988;2023-05-01T02:35:19;12.20;99.90
10692;DHT22;5396;50.950;6.988;2023-05-01T02:37:44;12.20;99.90
10692;DHT22;5396;50.950;6.988;2023-05-01T02:40:11;12.20;99.90
10692;DHT22;5396;50.950;6.988;2023-05-01T02:42:41;12.20;99.90
10692;DHT22;5396;50.950;6.988;2023-05-01T02:45:09;12.20;99.90
10692;DHT22;5396;50.950;6.988;2023-05-01T02:47:37;12.20;99.90
10692;DHT22;5396;50.950;6.988;2023-05-01T02:50:05;12.20;99.90
10692;DHT22;5396;50.950;6.988;2023-05-01T02:52:33;12.10;99.90
10692;DHT22;5396;50.950;6.988;2023-05-01T02:54:59;12.10;99.90
10692;DHT22;5396;50.950;6.988;2023-05-01T02:57:25;12.20;99.90
10692;DHT22;5396;50.950;6.988;2023-05-01T02:59:50;12.10;99.90
10692;DHT22;5396;50.950;6.988;2023-05-01T03:02:16;12.10;99.90
10692;DHT22;5396;50.950;6.988;2023-05-01T03:04:42;12.10;99.90
10692;DHT22;5396;50.950;6.988;2023-05-01T03:07:09;12.10;99.90
10692;DHT22;5396;50.950;6.988;2023-05-01T03:09:35;12.10;99.90
10692;DHT22;5396;50.950;6.988;2023-05-01T03:12:01;12.00;99.90
10692;DHT22;5396;50.950;6.988;2023-05-01T03:14:27;12.00;99.90
10692;DHT22;5396;50.950;6.988;2023-05-01T03:16:54;12.00;99.90
10692;DHT22;5396;50.950;6.988;2023-05-01T03:19:20;11.90;99.90
10692;DHT22;5396;50.950;6.988;2023-05-01T03:21:45;11.90;99.90
10692;DHT22;5396;50.950;6.988;2023-05-01T03:24:11;11.80;99.90
10692;DHT22;5396;50.950;6.988;2023-05-01T03:26:36;11.80;99.90
10692;DHT22;5396;50.950;6.988;2023-05-01T03:29:02;11.70;99.90
10692;DHT22;5396;50.950;6.988;2023-05-01T03:31:28;11.70;99.90
10692;DHT22;5396;50.950;6.988;2023-05-01T03:33:53;11.70;99.90
10692;DHT22;5396;50.950;6.988;2023-05-01T03:36:19;11.60;99.90
10692;DHT22;5396;50.950;6.988;2023-05-01T03:38:46;11.60;99.90
10692;DHT22;5396;50.950;6.988;2023-05-01T03:41:12;11.50;99.90
10692;DHT22;5396;50.950;6.988;2023-05-01T03:43:38;11.50;99.90
10692;DHT22;5396;50.950;6.988;2023-05-01T03:46:03;11.40;99.90
10692;DHT22;5396;50.950;6.988;2023-05-01T03:48:29;11.40;99.90
10692;DHT22;5396;50.950;6.988;2023-05-01T03:50:55;11.30;99.90
10692;DHT22;5396;50.950;6.988;2023-05-01T03:53:21;11.20;99.90
10692;DHT22;5396;50.950;6.988;2023-05-01T03:55:46;11.20;99.90
10692;DHT22;5396;50.950;6.988;2023-05-01T03:58:12;11.20;99.90
10692;DHT22;5396;50.950;6.988;2023-05-01T04:00:38;11.20;99.90
10692;DHT22;5396;50.950;6.988;2023-05-01T04:03:03;11.10;99.90
10692;DHT22;5396;50.950;6.988;2023-05-01T04:05:29;11.10;99.90
10692;DHT22;5396;50.950;6.988;2023-05-01T04:07:56;11.10;99.90
10692;DHT22;5396;50.950;6.988;2023-05-01T04:10:22;11.10;99.90
10692;DHT22;5396;50.950;6.988;2023-05-01T04:12:47;11.00;99.90
10692;DHT22;5396;50.950;6.988;2023-05-01T04:15:13;11.10;99.90
10692;DHT22;5396;50.950;6.988;2023-05-01T04:17:39;11.00;99.90
10692;DHT22;5396;50.950;6.988;2023-05-01T04:20:05;11.00;99.90
10692;DHT22;5396;50.950;6.988;2023-05-01T04:22:32;11.00;99.90
10692;DHT22;5396;50.950;6.988;2023-05-01T04:24:58;11.00;99.90
10692;DHT22;5396;50.950;6.988;2023-05-01T04:27:24;10.90;99.90
10692;DHT22;5396;50.950;6.988;2023-05-01T04:29:50;10.90;99.90
10692;DHT22;5396;50.950;6.988;2023-05-01T04:32:16;10.90;99.90
10692;DHT22;5396;50.950;6.988;2023-05-01T04:34:42;10.90;99.90
10692;DHT22;5396;50.950;6.988;2023-05-01T04:37:09;10.90;99.90
10692;DHT22;5396;50.950;6.988;2023-05-01T04:39:34;10.90;99.90
10692;DHT22;5396;50.950;6.988;2023-05-01T04:42:01;10.90;99.90
10692;DHT22;5396;50.950;6.988;2023-05-01T04:44:27;10.90;99.90
10692;DHT22;5396;50.950;6.988;2023-05-01T04:46:52;10.90;99.90
10692;DHT22;5396;50.950;6.988;2023-05-01T04:49:18;11.00;99.90
10692;DHT22;5396;50.950;6.988;2023-05-01T04:51:44;11.00;99.90
10692;DHT22;5396;50.950;6.988;2023-05-01T04:54:10;11.00;99.90
10692;DHT22;5396;50.950;6.988;2023-05-01T04:56:35;11.10;99.90
10692;DHT22;5396;50.950;6.988;2023-05-01T04:59:01;11.10;99.90
10692;DHT22;5396;50.950;6.988;2023-05-01T05:01:26;11.20;99.90
10692;DHT22;5396;50.950;6.988;2023-05-01T05:03:52;11.20;99.90
10692;DHT22;5396;50.950;6.988;2023-05-01T05:06:17;11.30;99.90
10692;DHT22;5396;50.950;6.988;2023-05-01T05:08:43;11.30;99.90
10692;DHT22;5396;50.950;6.988;2023-05-01T05:11:08;11.40;99.90
10692;DHT22;5396;50.950;6.988;2023-05-01T05:13:35;11.40;99.90
10692;DHT22;5396;50.950;6.988;2023-05-01T05:16:00;11.50;99.90
10692;DHT22;5396;50.950;6.988;2023-05-01T05:18:26;11.50;99.90
10692;DHT22;5396;50.950;6.988;2023-05-01T05:20:52;11.60;99.90
10692;DHT22;5396;50.950;6.988;2023-05-01T05:23:17;11.60;99.90
10692;DHT22;5396;50.950;6.988;2023-05-01T05:25:43;11.70;99.90
10692;DHT22;5396;50.950;6.988;2023-05-01T05:28:08;11.80;99.90
10692;DHT22;5396;50.950;6.988;2023-05-01T05:30:34;11.90;99.90
10692;DHT22;5396;50.950;6.988;2023-05-01T05:32:59;11.90;99.90
10692;DHT22;5396;50.950;6.988;2023-05-01T05:35:25;12.00;99.90
10692;DHT22;5396;50.950;6.988;2023-05-01T05:37:51;12.10;99.90
10692;DHT22;5396;50.950;6.988;2023-05-01T05:40:17;12.20;99.90
10692;DHT22;5396;50.950;6.988;2023-05-01T05:42:43;12.30;99.90
10692;DHT22;5396;50.950;6.988;2023-05-01T05:45:09;12.30;99.90
10692;DHT22;5396;50.950;6.988;2023-05-01T05:47:34;12.40;99.90
10692;DHT22;5396;50.950;6.988;2023-05-01T05:50:00;12.40;99.90
10692;DHT22;5396;50.950;6.988;2023-05-01T05:52:26;12.50;99.90
10692;DHT22;5396;50.950;6.988;2023-05-01T05:54:52;12.50;99.90
10692;DHT22;5396;50.950;6.988;2023-05-01T05:57:17;12.50;99.90
10692;DHT22;5396;50.950;6.988;2023-05-01T05:59:43;12.60;99.90
10692;DHT22;5396;50.950;6.988;2023-05-01T06:02:09;12.80;99.90
10692;DHT22;5396;50.950;6.988;2023-05-01T06:04:34;12.80;99.90
10692;DHT22;5396;50.950;6.988;2023-05-01T06:07:00;12.90;99.90
10692;DHT22;5396;50.950;6.988;2023-05-01T06:09:26;12.90;99.90
10692;DHT22;5396;50.950;6.988;2023-05-01T06:11:51;12.90;99.90
10692;DHT22;5396;50.950;6.988;2023-05-01T06:14:17;12.90;99.90
10692;DHT22;5396;50.950;6.988;2023-05-01T06:16:43;12.90;99.90
10692;DHT22;5396;50.950;6.988;2023-05-01T06:19:10;13.10;99.90
10692;DHT22;5396;50.950;6.988;2023-05-01T06:21:36;13.10;99.90
10692;DHT22;5396;50.950;6.988;2023-05-01T06:24:02;13.20;99.90
10692;DHT22;5396;50.950;6.988;2023-05-01T06:26:28;13.20;99.90
10692;DHT22;5396;50.950;6.988;2023-05-01T06:28:54;13.30;99.90
10692;DHT22;5396;50.950;6.988;2023-05-01T06:31:19;13.50;99.90
10692;DHT22;5396;50.950;6.988;2023-05-01T06:33:45;13.60;99.90
10692;DHT22;5396;50.950;6.988;2023-05-01T06:36:11;13.70;99.90
10692;DHT22;5396;50.950;6.988;2023-05-01T06:38:36;13.70;99.90
10692;DHT22;5396;50.950;6.988;2023-05-01T06:41:03;13.70;99.90
10692;DHT22;5396;50.950;6.988;2023-05-01T06:43:29;13.70;99.90
10692;DHT22;5396;50.950;6.988;2023-05-01T06:45:56;13.60;99.90
10692;DHT22;5396;50.950;6.988;2023-05-01T06:48:22;13.60;99.90
10692;DHT22;5396;50.950;6.988;2023-05-01T06:50:47;13.60;99.90
10692;DHT22;5396;50.950;6.988;2023-05-01T06:53:13;13.60;99.90
10692;DHT22;5396;50.950;6.988;2023-05-01T06:55:39;13.70;99.90
10692;DHT22;5396;50.950;6.988;2023-05-01T06:58:04;13.70;99.90
10692;DHT22;5396;50.950;6.988;2023-05-01T07:00:32;13.80;99.90
10692;DHT22;5396;50.950;6.988;2023-05-01T07:02:58;13.90;99.90
10692;DHT22;5396;50.950;6.988;2023-05-01T07:05:23;13.90;99.90
10692;DHT22;5396;50.950;6.988;2023-05-01T07:07:49;14.00;99.90
10692;DHT22;5396;50.950;6.988;2023-05-01T07:10:14;14.10;99.90
10692;DHT22;5396;50.950;6.988;2023-05-01T07:12:40;14.10;99.90
10692;DHT22;5396;50.950;6.988;2023-05-01T07:15:06;14.10;99.90
10692;DHT22;5396;50.950;6.988;2023-05-01T07:17:33;14.20;99.90
10692;DHT22;5396;50.950;6.988;2023-05-01T07:19:58;14.30;99.90
10692;DHT22;5396;50.950;6.988;2023-05-01T07:22:25;14.40;99.90
10692;DHT22;5396;50.950;6.988;2023-05-01T07:24:51;14.50;99.90
10692;DHT22;5396;50.950;6.988;2023-05-01T07:27:16;14.60;99.90
10692;DHT22;5396;50.950;6.988;2023-05-01T07:29:42;14.60;99.90
10692;DHT22;5396;50.950;6.988;2023-05-01T07:32:09;14.70;99.90
10692;DHT22;5396;50.950;6.988;2023-05-01T07:34:34;14.90;99.90
10692;DHT22;5396;50.950;6.988;2023-05-01T07:37:00;15.00;99.90
10692;DHT22;5396;50.950;6.988;2023-05-01T07:39:26;15.10;99.90
10692;DHT22;5396;50.950;6.988;2023-05-01T07:41:51;15.10;99.90
10692;DHT22;5396;50.950;6.988;2023-05-01T07:44:17;15.20;99.90
10692;DHT22;5396;50.950;6.988;2023-05-01T07:46:43;15.40;99.90
10692;DHT22;5396;50.950;6.988;2023-05-01T07:49:09;15.50;99.90
10692;DHT22;5396;50.950;6.988;2023-05-01T07:51:35;15.70;99.90
10692;DHT22;5396;50.950;6.988;2023-05-01T07:54:00;15.70;99.90
10692;DHT22;5396;50.950;6.988;2023-05-01T07:56:29;15.70;99.90
10692;DHT22;5396;50.950;6.988;2023-05-01T07:58:55;15.70;99.90
10692;DHT22;5396;50.950;6.988;2023-05-01T08:01:21;15.70;99.90
10692;DHT22;5396;50.950;6.988;2023-05-01T08:03:47;15.80;99.90
10692;DHT22;5396;50.950;6.988;2023-05-01T08:06:13;15.90;99.90
10692;DHT22;5396;50.950;6.988;2023-05-01T08:08:39;16.00;99.90
10692;DHT22;5396;50.950;6.988;2023-05-01T08:11:04;16.20;99.90
10692;DHT22;5396;50.950;6.988;2023-05-01T08:13:30;16.20;99.90
10692;DHT22;5396;50.950;6.988;2023-05-01T08:16:02;16.20;99.90
10692;DHT22;5396;50.950;6.988;2023-05-01T08:18:29;16.40;99.90
10692;DHT22;5396;50.950;6.988;2023-05-01T08:20:54;16.50;99.90
10692;DHT22;5396;50.950;6.988;2023-05-01T08:23:20;16.50;99.90
10692;DHT22;5396;50.950;6.988;2023-05-01T08:25:50;16.40;99.90
10692;DHT22;5396;50.950;6.988;2023-05-01T08:28:17;16.50;99.90
10692;DHT22;5396;50.950;6.988;2023-05-01T08:30:46;16.60;99.90
10692;DHT22;5396;50.950;6.988;2023-05-01T08:33:13;16.70;99.90
10692;DHT22;5396;50.950;6.988;2023-05-01T08:35:39;16.70;99.90
10692;DHT22;5396;50.950;6.988;2023-05-01T08:38:04;16.80;99.90
10692;DHT22;5396;50.950;6.988;2023-05-01T08:40:36;17.00;99.90
10692;DHT22;5396;50.950;6.988;2023-05-01T08:43:05;17.10;99.90
10692;DHT22;5396;50.950;6.988;2023-05-01T08:45:35;17.20;99.90
10692;DHT22;5396;50.950;6.988;2023-05-01T08:48:08;17.10;99.90
10692;DHT22;5396;50.950;6.988;2023-05-01T08:50:35;17.10;99.90
10692;DHT22;5396;50.950;6.988;2023-05-01T08:53:02;17.20;99.90
10692;DHT22;5396;50.950;6.988;2023-05-01T08:55:30;17.50;99.90
10692;DHT22;5396;50.950;6.988;2023-05-01T08:57:57;17.50;99.90
10692;DHT22;5396;50.950;6.988;2023-05-01T09:00:24;17.50;99.90
10692;DHT22;5396;50.950;6.988;2023-05-01T09:02:50;17.40;99.90
10692;DHT22;5396;50.950;6.988;2023-05-01T09:05:18;17.50;99.90
10692;DHT22;5396;50.950;6.988;2023-05-01T09:07:45;17.60;99.90
10692;DHT22;5396;50.950;6.988;2023-05-01T09:10:12;17.80;99.90
10692;DHT22;5396;50.950;6.988;2023-05-01T09:12:39;17.90;99.90
10692;DHT22;5396;50.950;6.988;2023-05-01T09:15:06;18.10;99.90
10692;DHT22;5396;50.950;6.988;2023-05-01T09:17:33;18.10;99.90
10692;DHT22;5396;50.950;6.988;2023-05-01T09:20:01;18.30;99.90
10692;DHT22;5396;50.950;6.988;2023-05-01T09:22:29;18.50;99.90
10692;DHT22;5396;50.950;6.988;2023-05-01T09:24:55;18.50;99.90
10692;DHT22;5396;50.950;6.988;2023-05-01T09:27:21;18.60;99.90
10692;DHT22;5396;50.950;6.988;2023-05-01T09:29:47;18.60;99.90
10692;DHT22;5396;50.950;6.988;2023-05-01T09:34:45;18.60;99.90
10692;DHT22;5396;50.950;6.988;2023-05-01T09:37:13;18.30;99.90
10692;DHT22;5396;50.950;6.988;2023-05-01T09:40:09;18.30;99.90
10692;DHT22;5396;50.950;6.988;2023-05-01T09:42:37;18.10;99.90
10692;DHT22;5396;50.950;6.988;2023-05-01T09:45:11;17.90;99.90
10692;DHT22;5396;50.950;6.988;2023-05-01T09:47:38;18.00;99.90
10692;DHT22;5396;50.950;6.988;2023-05-01T09:50:04;18.00;99.90
10692;DHT22;5396;50.950;6.988;2023-05-01T09:52:31;18.00;99.90
10692;DHT22;5396;50.950;6.988;2023-05-01T09:55:17;18.00;99.90
10692;DHT22;5396;50.950;6.988;2023-05-01T09:57:44;18.20;99.90
10692;DHT22;5396;50.950;6.988;2023-05-01T10:00:14;18.50;99.90
10692;DHT22;5396;50.950;6.988;2023-05-01T10:02:42;18.60;99.90
10692;DHT22;5396;50.950;6.988;2023-05-01T10:05:09;18.60;99.90
10692;DHT22;5396;50.950;6.988;2023-05-01T10:07:35;18.60;99.90
10692;DHT22;5396;50.950;6.988;2023-05-01T10:10:20;18.80;99.90
10692;DHT22;5396;50.950;6.988;2023-05-01T10:12:46;19.10;99.90
10692;DHT22;5396;50.950;6.988;2023-05-01T10:15:13;19.20;99.90
10692;DHT22;5396;50.950;6.988;2023-05-01T10:17:40;19.30;99.90
10692;DHT22;5396;50.950;6.988;2023-05-01T10:20:08;19.30;99.90
10692;DHT22;5396;50.950;6.988;2023-05-01T10:22:34;19.20;99.90
10692;DHT22;5396;50.950;6.988;2023-05-01T10:25:00;19.20;99.90
10692;DHT22;5396;50.950;6.988;2023-05-01T10:27:26;19.00;99.90
10692;DHT22;5396;50.950;6.988;2023-05-01T10:29:52;19.00;99.90
10692;DHT22;5396;50.950;6.988;2023-05-01T10:32:19;19.10;99.90
10692;DHT22;5396;50.950;6.988;2023-05-01T10:34:50;19.20;99.90
10692;DHT22;5396;50.950;6.988;2023-05-01T10:37:48;19.20;99.90
10692;DHT22;5396;50.950;6.988;2023-05-01T10:45:38;19.40;99.90
10692;DHT22;5396;50.950;6.988;2023-05-01T10:48:04;19.40;99.90
10692;DHT22;5396;50.950;6.988;2023-05-01T10:50:29;19.40;99.90
10692;DHT22;5396;50.950;6.988;2023-05-01T10:55:37;19.30;99.90
10692;DHT22;5396;50.950;6.988;2023-05-01T10:58:03;19.50;99.90
10692;DHT22;5396;50.950;6.988;2023-05-01T11:00:30;19.70;99.90
10692;DHT22;5396;50.950;6.988;2023-05-01T11:08:31;19.80;99.90
10692;DHT22;5396;50.950;6.988;2023-05-01T11:10:57;19.80;99.90
10692;DHT22;5396;50.950;6.988;2023-05-01T11:21:48;20.80;99.90
10692;DHT22;5396;50.950;6.988;2023-05-01T11:24:15;21.10;99.90
10692;DHT22;5396;50.950;6.988;2023-05-01T11:26:43;21.20;99.90
10692;DHT22;5396;50.950;6.988;2023-05-01T11:29:09;21.40;99.90
10692;DHT22;5396;50.950;6.988;2023-05-01T11:31:36;21.50;99.90
10692;DHT22;5396;50.950;6.988;2023-05-01T11:34:02;21.60;99.90
10692;DHT22;5396;50.950;6.988;2023-05-01T11:36:29;21.50;99.90
10692;DHT22;5396;50.950;6.988;2023-05-01T11:39:14;21.80;99.90
10692;DHT22;5396;50.950;6.988;2023-05-01T11:41:43;21.70;99.90
10692;DHT22;5396;50.950;6.988;2023-05-01T11:44:14;22.00;99.90
10692;DHT22;5396;50.950;6.988;2023-05-01T11:46:41;22.10;99.90
10692;DHT22;5396;50.950;6.988;2023-05-01T11:49:06;22.30;99.90
10692;DHT22;5396;50.950;6.988;2023-05-01T11:51:33;22.30;99.90
10692;DHT22;5396;50.950;6.988;2023-05-01T11:54:07;22.20;99.90
10692;DHT22;5396;50.950;6.988;2023-05-01T11:56:35;22.50;99.90
10692;DHT22;5396;50.950;6.988;2023-05-01T12:01:41;22.40;99.90
10692;DHT22;5396;50.950;6.988;2023-05-01T12:04:10;22.20;99.90
10692;DHT22;5396;50.950;6.988;2023-05-01T12:06:39;22.10;99.90
10692;DHT22;5396;50.950;6.988;2023-05-01T12:09:10;22.10;99.90
10692;DHT22;5396;50.950;6.988;2023-05-01T12:11:37;21.90;99.90
10692;DHT22;5396;50.950;6.988;2023-05-01T12:14:03;21.70;99.90
10692;DHT22;5396;50.950;6.988;2023-05-01T12:16:29;21.80;99.90
10692;DHT22;5396;50.950;6.988;2023-05-01T12:18:55;21.80;99.90
10692;DHT22;5396;50.950;6.988;2023-05-01T12:21:21;21.50;99.90
10692;DHT22;5396;50.950;6.988;2023-05-01T12:23:47;21.40;99.90
10692;DHT22;5396;50.950;6.988;2023-05-01T12:26:18;21.50;99.90
10692;DHT22;5396;50.950;6.988;2023-05-01T12:28:58;21.80;99.90
10692;DHT22;5396;50.950;6.988;2023-05-01T12:31:25;22.10;99.90
10692;DHT22;5396;50.950;6.988;2023-05-01T12:34:01;22.10;99.90
10692;DHT22;5396;50.950;6.988;2023-05-01T12:36:29;22.30;99.90
10692;DHT22;5396;50.950;6.988;2023-05-01T12:39:04;22.10;99.90
10692;DHT22;5396;50.950;6.988;2023-05-01T12:41:42;21.60;99.90
10692;DHT22;5396;50.950;6.988;2023-05-01T12:44:18;21.50;99.90
10692;DHT22;5396;50.950;6.988;2023-05-01T12:46:51;21.60;99.90
10692;DHT22;5396;50.950;6.988;2023-05-01T12:49:18;21.80;99.90
10692;DHT22;5396;50.950;6.988;2023-05-01T12:51:51;22.30;99.90
10692;DHT22;5396;50.950;6.988;2023-05-01T12:54:22;22.60;99.90
10692;DHT22;5396;50.950;6.988;2023-05-01T12:56:49;23.50;99.90
10692;DHT22;5396;50.950;6.988;2023-05-01T12:59:23;24.40;99.90
10692;DHT22;5396;50.950;6.988;2023-05-01T13:01:59;25.80;1.00
10692;DHT22;5396;50.950;6.988;2023-05-01T13:04:26;26.80;1.00
10692;DHT22;5396;50.950;6.988;2023-05-01T13:06:52;26.90;99.90
10692;DHT22;5396;50.950;6.988;2023-05-01T13:09:26;26.20;99.90
10692;DHT22;5396;50.950;6.988;2023-05-01T13:12:02;25.20;99.90
10692;DHT22;5396;50.950;6.988;2023-05-01T13:14:36;24.30;99.90
10692;DHT22;5396;50.950;6.988;2023-05-01T13:17:08;23.90;99.90
10692;DHT22;5396;50.950;6.988;2023-05-01T13:19:35;23.70;99.90
10692;DHT22;5396;50.950;6.988;2023-05-01T13:22:01;24.70;99.90
10692;DHT22;5396;50.950;6.988;2023-05-01T13:24:45;25.80;99.90
10692;DHT22;5396;50.950;6.988;2023-05-01T13:27:11;27.00;99.90
10692;DHT22;5396;50.950;6.988;2023-05-01T13:29:38;26.50;99.90
10692;DHT22;5396;50.950;6.988;2023-05-01T13:32:04;25.70;99.90
10692;DHT22;5396;50.950;6.988;2023-05-01T13:34:34;25.10;99.90
10692;DHT22;5396;50.950;6.988;2023-05-01T13:37:01;24.40;99.90
10692;DHT22;5396;50.950;6.988;2023-05-01T13:39:27;23.90;99.90
10692;DHT22;5396;50.950;6.988;2023-05-01T13:41:53;23.60;99.90
10692;DHT22;5396;50.950;6.988;2023-05-01T13:44:20;23.30;99.90
10692;DHT22;5396;50.950;6.988;2023-05-01T13:46:46;22.90;99.90
10692;DHT22;5396;50.950;6.988;2023-05-01T13:49:20;22.70;99.90
10692;DHT22;5396;50.950;6.988;2023-05-01T13:51:51;22.50;99.90
10692;DHT22;5396;50.950;6.988;2023-05-01T13:54:18;22.20;99.90
10692;DHT22;5396;50.950;6.988;2023-05-01T13:56:44;21.80;99.90
10692;DHT22;5396;50.950;6.988;2023-05-01T13:59:10;21.50;99.90
10692;DHT22;5396;50.950;6.988;2023-05-01T14:01:41;21.20;99.90
10692;DHT22;5396;50.950;6.988;2023-05-01T14:04:13;20.80;99.90
10692;DHT22;5396;50.950;6.988;2023-05-01T14:06:42;20.40;99.90
10692;DHT22;5396;50.950;6.988;2023-05-01T14:09:09;19.90;99.90
10692;DHT22;5396;50.950;6.988;2023-05-01T14:11:46;19.30;99.90
10692;DHT22;5396;50.950;6.988;2023-05-01T14:14:14;18.60;99.90
10692;DHT22;5396;50.950;6.988;2023-05-01T14:16:41;18.20;99.90
10692;DHT22;5396;50.950;6.988;2023-05-01T14:19:14;17.90;99.90
10692;DHT22;5396;50.950;6.988;2023-05-01T14:21:40;17.60;99.90
10692;DHT22;5396;50.950;6.988;2023-05-01T14:24:07;17.40;99.90
10692;DHT22;5396;50.950;6.988;2023-05-01T14:26:33;17.20;72.40
10692;DHT22;5396;50.950;6.988;2023-05-01T14:29:00;17.00;25.10
10692;DHT22;5396;50.950;6.988;2023-05-01T14:31:27;16.70;20.40
10692;DHT22;5396;50.950;6.988;2023-05-01T14:33:59;16.50;1.00
10692;DHT22;5396;50.950;6.988;2023-05-01T14:36:26;16.10;1.00
10692;DHT22;5396;50.950;6.988;2023-05-01T14:38:56;15.40;1.00
10692;DHT22;5396;50.950;6.988;2023-05-01T14:41:22;14.50;99.90
10692;DHT22;5396;50.950;6.988;2023-05-01T14:43:49;13.80;1.00
10692;DHT22;5396;50.950;6.988;2023-05-01T14:46:31;13.50;1.00
10692;DHT22;5396;50.950;6.988;2023-05-01T14:48:57;13.30;1.00
10692;DHT22;5396;50.950;6.988;2023-05-01T14:51:23;13.10;1.00
10692;DHT22;5396;50.950;6.988;2023-05-01T14:53:48;13.00;99.90
10692;DHT22;5396;50.950;6.988;2023-05-01T14:56:14;13.00;99.90
10692;DHT22;5396;50.950;6.988;2023-05-01T14:58:40;12.90;1.00
10692;DHT22;5396;50.950;6.988;2023-05-01T15:01:06;12.80;1.00
10692;DHT22;5396;50.950;6.988;2023-05-01T15:03:33;12.80;1.00
10692;DHT22;5396;50.950;6.988;2023-05-01T15:06:07;12.70;1.00
10692;DHT22;5396;50.950;6.988;2023-05-01T15:08:33;12.70;1.00
10692;DHT22;5396;50.950;6.988;2023-05-01T15:10:59;12.70;1.00
10692;DHT22;5396;50.950;6.988;2023-05-01T15:13:24;12.80;1.00
10692;DHT22;5396;50.950;6.988;2023-05-01T15:15:50;12.70;1.00
10692;DHT22;5396;50.950;6.988;2023-05-01T15:18:17;12.70;1.00
10692;DHT22;5396;50.950;6.988;2023-05-01T15:20:42;12.70;1.00
10692;DHT22;5396;50.950;6.988;2023-05-01T15:23:08;12.70;1.00
10692;DHT22;5396;50.950;6.988;2023-05-01T15:25:35;12.70;1.00
10692;DHT22;5396;50.950;6.988;2023-05-01T15:28:01;12.70;1.00
10692;DHT22;5396;50.950;6.988;2023-05-01T15:30:27;12.70;1.00
10692;DHT22;5396;50.950;6.988;2023-05-01T15:32:53;12.60;12.10
10692;DHT22;5396;50.950;6.988;2023-05-01T15:35:20;12.70;15.80
10692;DHT22;5396;50.950;6.988;2023-05-01T15:37:46;12.70;1.00
10692;DHT22;5396;50.950;6.988;2023-05-01T15:40:11;12.60;1.00
10692;DHT22;5396;50.950;6.988;2023-05-01T15:42:37;12.50;1.00
10692;DHT22;5396;50.950;6.988;2023-05-01T15:45:04;12.50;1.00
10692;DHT22;5396;50.950;6.988;2023-05-01T15:47:30;12.50;1.00
10692;DHT22;5396;50.950;6.988;2023-05-01T15:49:55;12.40;1.00
10692;DHT22;5396;50.950;6.988;2023-05-01T15:52:21;12.40;1.00
10692;DHT22;5396;50.950;6.988;2023-05-01T15:54:46;12.40;1.00
10692;DHT22;5396;50.950;6.988;2023-05-01T15:57:13;12.40;1.00
10692;DHT22;5396;50.950;6.988;2023-05-01T15:59:42;12.50;1.00
10692;DHT22;5396;50.950;6.988;2023-05-01T16:02:07;12.60;3.10
10692;DHT22;5396;50.950;6.988;2023-05-01T16:04:34;12.70;5.50
10692;DHT22;5396;50.950;6.988;2023-05-01T16:07:02;12.80;1.00
10692;DHT22;5396;50.950;6.988;2023-05-01T16:09:30;12.90;1.00
10692;DHT22;5396;50.950;6.988;2023-05-01T16:11:56;13.00;1.00
10692;DHT22;5396;50.950;6.988;2023-05-01T16:14:24;13.00;18.80
10692;DHT22;5396;50.950;6.988;2023-05-01T16:16:49;13.30;50.30
10692;DHT22;5396;50.950;6.988;2023-05-01T16:19:16;13.90;57.30
10692;DHT22;5396;50.950;6.988;2023-05-01T16:21:42;14.30;8.10
10692;DHT22;5396;50.950;6.988;2023-05-01T16:24:09;14.40;1.00